createdAt,value
2018-09-24T00:02:01.447Z,102355.95
2018-09-24T00:04:31.931Z,102367.73
2018-09-24T00:07:02.500Z,102374.83
2018-09-24T00:09:32.988Z,102372.75
2018-09-24T00:12:03.619Z,102375.64
2018-09-24T00:14:33.740Z,102380.90
2018-09-24T00:17:04.578Z,102387.14
2018-09-24T00:19:35.616Z,102392.36
2018-09-24T00:22:06.556Z,102396.41
2018-09-24T00:24:37.152Z,102399.21
2018-09-24T00:27:07.847Z,102400.00
2018-09-24T00:29:38.103Z,102408.17
2018-09-24T00:32:08.651Z,102400.64
2018-09-24T00:34:40.332Z,102404.98
2018-09-24T00:37:10.967Z,102406.88
2018-09-24T00:39:41.686Z,102416.26
2018-09-24T00:42:12.375Z,102428.60
2018-09-24T00:44:42.874Z,102436.72
2018-09-24T00:47:13.504Z,102438.77
2018-09-24T00:49:44.350Z,102435.83
2018-09-24T00:52:14.810Z,102441.91
2018-09-24T00:54:45.243Z,102454.28
2018-09-24T00:57:15.599Z,102457.97
2018-09-24T00:59:46.223Z,102454.34
2018-09-24T01:02:16.742Z,102457.01
2018-09-24T01:04:47.176Z,102461.47
2018-09-24T01:07:17.802Z,102475.52
2018-09-24T01:09:48.850Z,102475.45
2018-09-24T01:12:19.265Z,102479.78
2018-09-24T01:14:49.761Z,102483.50
2018-09-24T01:17:20.315Z,102489.84
2018-09-24T01:19:51.045Z,102492.06
2018-09-24T01:22:21.595Z,102486.91
2018-09-24T01:24:52.627Z,102493.28
2018-09-24T01:27:23.093Z,102493.55
2018-09-24T01:29:53.689Z,102501.81
2018-09-24T01:32:24.869Z,102506.78
2018-09-24T01:34:56.696Z,102510.62
2018-09-24T01:37:27.448Z,102523.05
2018-09-24T01:39:58.248Z,102526.45
2018-09-24T01:42:29.028Z,102538.03
2018-09-24T01:44:59.664Z,102539.28
2018-09-24T01:47:30.375Z,102550.08
2018-09-24T01:50:00.916Z,102551.55
2018-09-24T01:52:31.842Z,102557.16
2018-09-24T01:55:02.784Z,102561.61
2018-09-24T01:57:33.293Z,102565.25
2018-09-24T02:00:03.840Z,102565.41
2018-09-24T02:02:33.773Z,102559.27
2018-09-24T02:05:03.792Z,102563.56
2018-09-24T02:07:33.712Z,102565.36
2018-09-24T02:10:03.708Z,102564.47
2018-09-24T02:12:33.507Z,102567.78
2018-09-24T02:15:03.356Z,102567.24
2018-09-24T02:17:33.203Z,102564.38
2018-09-24T02:20:03.883Z,102578.42
2018-09-24T02:22:34.267Z,102582.33
2018-09-24T02:25:04.928Z,102576.66
2018-09-24T02:27:35.594Z,102586.66
2018-09-24T02:30:06.252Z,102591.70
2018-09-24T02:32:36.640Z,102589.42
2018-09-24T02:35:07.280Z,102592.20
2018-09-24T02:37:37.809Z,102599.19
2018-09-24T02:40:12.704Z,102601.48
2018-09-24T02:42:42.534Z,102601.77
2018-09-24T02:45:12.369Z,102607.54
2018-09-24T02:47:42.322Z,102615.75
2018-09-24T02:50:12.303Z,102618.42
2018-09-24T02:52:42.682Z,102621.89
2018-09-24T02:55:15.670Z,102627.44
2018-09-24T02:57:46.606Z,102623.97
2018-09-24T03:00:21.233Z,102633.77
2018-09-24T03:02:52.113Z,102627.31
2018-09-24T03:05:23.372Z,102636.30
2018-09-24T03:07:53.969Z,102645.22
2018-09-24T03:10:25.021Z,102649.35
2018-09-24T03:12:55.303Z,102649.66
2018-09-24T03:15:26.107Z,102655.03
2018-09-24T03:17:56.904Z,102653.92
2018-09-24T03:20:27.369Z,102659.39
2018-09-24T03:22:57.664Z,102653.20
2018-09-24T03:25:28.199Z,102655.40
2018-09-24T03:28:01.322Z,102662.05
2018-09-24T03:30:36.961Z,102652.33
2018-09-24T03:33:07.849Z,102659.70
2018-09-24T03:35:38.323Z,102658.38
2018-09-24T03:38:08.876Z,102661.26
2018-09-24T03:40:39.425Z,102667.02
2018-09-24T03:43:09.852Z,102672.70
2018-09-24T03:45:40.294Z,102676.86
2018-09-24T03:48:10.571Z,102678.47
2018-09-24T03:50:40.963Z,102690.28
2018-09-24T03:53:11.423Z,102693.13
2018-09-24T03:55:42.186Z,102691.61
2018-09-24T03:58:12.284Z,102699.44
2018-09-24T04:00:42.644Z,102696.46
2018-09-24T04:03:12.872Z,102703.84
2018-09-24T04:05:48.534Z,102712.03
2018-09-24T04:08:24.250Z,102709.02
2018-09-24T04:10:59.699Z,102712.34
2018-09-24T04:13:35.036Z,102713.36
2018-09-24T04:16:10.275Z,102721.55
2018-09-24T04:18:47.191Z,102731.13
2018-09-24T04:21:22.596Z,102726.27
2018-09-24T04:23:57.789Z,102730.70
2018-09-24T04:26:33.218Z,102738.37
2018-09-24T04:29:08.506Z,102740.38
2018-09-24T04:31:43.693Z,102738.75
2018-09-24T04:34:19.069Z,102748.91
2018-09-24T04:36:54.544Z,102750.74
2018-09-24T04:39:29.935Z,102749.86
2018-09-24T04:42:05.138Z,102757.38
2018-09-24T04:44:40.608Z,102758.80
2018-09-24T04:47:16.849Z,102765.87
2018-09-24T04:49:52.528Z,102761.52
2018-09-24T04:52:29.253Z,102767.44
2018-09-24T04:55:04.444Z,102770.32
2018-09-24T04:57:40.629Z,102766.09
2018-09-24T05:00:16.093Z,102772.08
2018-09-24T05:02:52.494Z,102779.38
2018-09-24T05:05:28.298Z,102779.66
2018-09-24T05:08:04.545Z,102787.85
2018-09-24T05:10:39.868Z,102779.89
2018-09-24T05:13:15.250Z,102793.67
2018-09-24T05:15:53.293Z,102795.81
2018-09-24T05:18:28.687Z,102802.36
2018-09-24T05:21:04.580Z,102809.22
2018-09-24T05:23:39.918Z,102812.32
2018-09-24T05:26:16.272Z,102820.22
2018-09-24T05:28:51.988Z,102816.02
2018-09-24T05:31:27.981Z,102828.69
2018-09-24T05:34:03.893Z,102832.42
2018-09-24T05:36:41.629Z,102833.53
2018-09-24T05:39:16.928Z,102835.14
2018-09-24T05:41:52.883Z,102838.40
2018-09-24T05:44:28.234Z,102839.85
2018-09-24T05:47:03.305Z,102843.58
2018-09-24T05:49:38.280Z,102846.08
2018-09-24T05:52:13.604Z,102849.87
2018-09-24T05:54:48.631Z,102852.99
2018-09-24T05:57:23.672Z,102849.45
2018-09-24T05:59:58.567Z,102852.33
2018-09-24T06:02:33.524Z,102861.03
2018-09-24T06:05:08.660Z,102862.00
2018-09-24T06:07:43.757Z,102866.08
2018-09-24T06:10:18.518Z,102869.02
2018-09-24T06:12:53.590Z,102869.90
2018-09-24T06:15:28.486Z,102872.34
2018-09-24T06:18:03.448Z,102879.30
2018-09-24T06:20:38.456Z,102884.97
2018-09-24T06:23:13.572Z,102885.70
2018-09-24T06:25:48.572Z,102890.30
2018-09-24T06:28:25.685Z,102889.98
2018-09-24T06:31:00.794Z,102894.99
2018-09-24T06:33:35.785Z,102894.70
2018-09-24T06:36:10.930Z,102896.83
2018-09-24T06:38:47.739Z,102897.67
2018-09-24T06:41:23.073Z,102905.06
2018-09-24T06:43:58.271Z,102908.28
2018-09-24T06:46:34.869Z,102914.00
2018-09-24T06:49:16.685Z,102918.31
2018-09-24T06:51:51.688Z,102912.28
2018-09-24T06:54:28.094Z,102914.69
2018-09-24T06:57:03.178Z,102923.44
2018-09-24T06:59:38.503Z,102922.11
2018-09-24T07:02:13.805Z,102926.83
2018-09-24T07:04:48.703Z,102932.40
2018-09-24T07:07:23.900Z,102933.47
2018-09-24T07:09:58.994Z,102935.03
2018-09-24T07:12:33.948Z,102942.67
2018-09-24T07:15:08.964Z,102945.81
2018-09-24T07:17:44.113Z,102951.08
2018-09-24T07:20:19.132Z,102946.34
2018-09-24T07:22:54.278Z,102952.72
2018-09-24T07:25:29.324Z,102955.23
2018-09-24T07:28:04.924Z,102967.15
2018-09-24T07:30:39.612Z,102964.91
2018-09-24T07:33:14.979Z,102973.78
2018-09-24T07:35:49.973Z,102969.78
2018-09-24T07:38:24.985Z,102981.49
2018-09-24T07:40:59.927Z,102983.15
2018-09-24T07:43:35.116Z,102984.31
2018-09-24T07:46:10.082Z,102986.33
2018-09-24T07:48:45.071Z,102994.48
2018-09-24T07:51:19.844Z,103000.33
2018-09-24T07:53:55.191Z,103004.38
2018-09-24T07:56:30.136Z,103012.96
2018-09-24T07:59:05.168Z,103021.92
2018-09-24T08:01:40.416Z,103026.17
2018-09-24T08:04:15.537Z,103030.36
2018-09-24T08:06:50.473Z,103030.29
2018-09-24T08:09:25.521Z,103042.38
2018-09-24T08:12:00.676Z,103039.17
2018-09-24T08:14:36.200Z,103041.62
2018-09-24T08:17:12.871Z,103051.96
2018-09-24T08:19:47.829Z,103052.19
2018-09-24T08:22:23.137Z,103055.70
2018-09-24T08:24:58.604Z,103064.77
2018-09-24T08:27:33.852Z,103062.86
2018-09-24T08:30:09.196Z,103070.03
2018-09-24T08:32:44.795Z,103066.66
2018-09-24T08:35:19.913Z,103068.59
2018-09-24T08:37:55.399Z,103068.70
2018-09-24T08:40:32.053Z,103076.42
2018-09-24T08:43:08.580Z,103084.00
2018-09-24T08:45:44.504Z,103084.80
2018-09-24T08:48:20.101Z,103075.33
2018-09-24T08:50:55.839Z,103073.47
2018-09-24T08:53:31.200Z,103082.91
2018-09-24T08:56:06.337Z,103080.09
2018-09-24T08:58:41.102Z,103085.05
2018-09-24T09:01:16.177Z,103089.52
2018-09-24T09:03:51.189Z,103080.95
2018-09-24T09:06:26.261Z,103080.87
2018-09-24T09:09:01.271Z,103082.36
2018-09-24T09:11:36.144Z,103087.92
2018-09-24T09:14:11.406Z,103075.03
2018-09-24T09:16:46.935Z,103077.08
2018-09-24T09:19:21.924Z,103088.17
2018-09-24T09:21:56.946Z,103084.91
2018-09-24T09:24:31.781Z,103098.57
2018-09-24T09:27:06.948Z,103090.20
2018-09-24T09:29:44.647Z,103089.88
2018-09-24T09:32:19.780Z,103097.56
2018-09-24T09:34:54.911Z,103103.08
2018-09-24T09:37:29.890Z,103111.30
2018-09-24T09:40:04.996Z,103114.94
2018-09-24T09:42:40.024Z,103114.37
2018-09-24T09:45:15.022Z,103120.94
2018-09-24T09:47:50.287Z,103116.66
2018-09-24T09:50:25.474Z,103108.95
2018-09-24T09:53:00.713Z,103113.19
2018-09-24T09:55:35.800Z,103113.59
2018-09-24T09:58:10.862Z,103109.09
2018-09-24T10:00:45.680Z,103110.77
2018-09-24T10:03:20.947Z,103116.81
2018-09-24T10:05:55.935Z,103116.52
2018-09-24T10:08:30.720Z,103113.78
2018-09-24T10:11:05.726Z,103102.94
2018-09-24T10:13:40.659Z,103101.90
2018-09-24T10:16:16.039Z,103101.28
2018-09-24T10:18:50.992Z,103106.36
2018-09-24T10:21:26.196Z,103107.55
2018-09-24T10:24:01.159Z,103107.27
2018-09-24T10:26:36.048Z,103107.81
2018-09-24T10:29:12.107Z,103100.69
2018-09-24T10:31:47.004Z,103101.56
2018-09-24T10:34:24.914Z,103098.55
2018-09-24T10:37:00.160Z,103100.78
2018-09-24T10:39:35.774Z,103098.30
2018-09-24T10:42:11.441Z,103089.85
2018-09-24T10:44:46.892Z,103100.16
2018-09-24T10:47:22.286Z,103104.91
2018-09-24T10:49:58.880Z,103104.13
2018-09-24T10:52:36.330Z,103106.48
2018-09-24T10:55:14.521Z,103102.00
2018-09-24T10:57:50.612Z,103108.69
2018-09-24T11:00:27.929Z,103116.11
2018-09-24T11:03:04.590Z,103115.75
2018-09-24T11:05:43.368Z,103111.57
2018-09-24T11:08:19.358Z,103115.27
2018-09-24T11:10:55.360Z,103116.85
2018-09-24T11:13:32.229Z,103119.17
2018-09-24T11:16:08.819Z,103110.16
2018-09-24T11:18:44.124Z,103104.38
2018-09-24T11:21:19.991Z,103105.45
2018-09-24T11:23:56.484Z,103113.89
2018-09-24T11:29:08.492Z,103108.90
2018-09-24T11:31:45.069Z,103112.11
2018-09-24T11:34:20.669Z,103110.28
2018-09-24T11:36:57.974Z,103113.80
2018-09-24T11:39:33.519Z,103116.81
2018-09-24T11:42:08.802Z,103110.72
2018-09-24T11:44:44.435Z,103105.88
2018-09-24T11:47:19.736Z,103108.84
2018-09-24T11:49:54.789Z,103114.91
2018-09-24T11:52:29.948Z,103137.41
2018-09-24T11:55:05.066Z,103141.39
2018-09-24T11:57:39.884Z,103136.73
2018-09-24T12:00:15.038Z,103135.13
2018-09-24T12:02:50.364Z,103135.66
2018-09-24T12:05:25.483Z,103138.20
2018-09-24T12:08:00.626Z,103136.74
2018-09-24T12:10:35.870Z,103126.48
2018-09-24T12:13:10.866Z,103130.89
2018-09-24T12:15:46.248Z,103132.98
2018-09-24T12:18:21.495Z,103128.44
2018-09-24T12:20:56.517Z,103127.73
2018-09-24T12:23:32.117Z,103127.05
2018-09-24T12:26:07.623Z,103120.36
2018-09-24T12:28:42.756Z,103117.70
2018-09-24T12:31:17.787Z,103115.73
2018-09-24T12:33:52.908Z,103119.00
2018-09-24T12:36:27.969Z,103111.50
2018-09-24T12:39:03.083Z,103104.02
2018-09-24T12:41:38.253Z,103104.88
2018-09-24T12:44:13.274Z,103093.02
2018-09-24T12:46:49.317Z,103099.70
2018-09-24T12:49:25.093Z,103104.51
2018-09-24T12:52:00.191Z,103105.52
2018-09-24T12:54:35.523Z,103104.16
2018-09-24T12:57:10.759Z,103102.04
2018-09-24T12:59:46.178Z,103104.77
2018-09-24T13:02:21.558Z,103110.73
2018-09-24T13:04:56.828Z,103109.39
2018-09-24T13:07:32.416Z,103108.09
2018-09-24T13:10:07.934Z,103107.39
2018-09-24T13:12:43.244Z,103106.41
2018-09-24T13:15:18.601Z,103100.83
2018-09-24T13:17:54.253Z,103106.04
2018-09-24T13:20:29.903Z,103110.12
2018-09-24T13:23:05.190Z,103111.48
2018-09-24T13:25:40.435Z,103105.59
2018-09-24T13:28:15.950Z,103110.98
2018-09-24T13:30:51.585Z,103114.22
2018-09-24T13:33:27.015Z,103111.55
2018-09-24T13:36:02.741Z,103108.83
2018-09-24T13:38:38.285Z,103115.98
2018-09-24T13:41:13.746Z,103116.88
2018-09-24T13:43:49.178Z,103120.32
2018-09-24T13:46:24.530Z,103119.55
2018-09-24T13:48:59.882Z,103123.10
2018-09-24T13:51:35.388Z,103123.58
2018-09-24T13:54:10.450Z,103110.42
2018-09-24T13:56:45.863Z,103112.31
2018-09-24T13:59:21.288Z,103103.95
2018-09-24T14:01:56.783Z,103104.72
2018-09-24T14:04:31.961Z,103108.53
2018-09-24T14:07:07.331Z,103113.67
2018-09-24T14:09:42.703Z,103104.06
2018-09-24T14:12:18.191Z,103112.52
2018-09-24T14:14:53.535Z,103112.42
2018-09-24T14:17:29.091Z,103106.66
2018-09-24T14:20:04.689Z,103101.56
2018-09-24T14:22:40.114Z,103103.45
2018-09-24T14:25:16.415Z,103104.27
2018-09-24T14:27:51.817Z,103111.98
2018-09-24T14:30:27.379Z,103099.47
2018-09-24T14:33:02.734Z,103106.41
2018-09-24T14:35:38.111Z,103117.14
2018-09-24T14:38:13.862Z,103112.94
2018-09-24T14:40:49.959Z,103116.97
2018-09-24T14:43:25.181Z,103114.87
2018-09-24T14:46:01.769Z,103106.59
2018-09-24T14:48:37.045Z,103109.77
2018-09-24T14:51:12.165Z,103118.16
2018-09-24T14:53:47.085Z,103118.66
2018-09-24T14:56:22.217Z,103123.52
2018-09-24T14:58:57.304Z,103120.80
2018-09-24T15:01:32.560Z,103121.10
2018-09-24T15:04:07.622Z,103121.05
2018-09-24T15:06:42.774Z,103135.20
2018-09-24T15:09:17.666Z,103129.72
2018-09-24T15:11:52.837Z,103138.54
2018-09-24T15:14:27.904Z,103179.55
2018-09-24T15:17:03.083Z,103163.12
2018-09-24T15:19:38.786Z,103158.34
2018-09-24T15:22:14.173Z,103147.11
2018-09-24T15:24:49.150Z,103152.65
2018-09-24T15:27:24.089Z,103146.73
2018-09-24T15:29:59.550Z,103143.56
2018-09-24T15:32:34.438Z,103153.79
2018-09-24T15:35:09.845Z,103151.51
2018-09-24T15:37:45.650Z,103147.75
2018-09-24T15:40:21.065Z,103148.21
2018-09-24T15:42:56.495Z,103148.08
2018-09-24T15:45:31.501Z,103151.52
2018-09-24T15:48:06.509Z,103150.70
2018-09-24T15:50:41.537Z,103146.75
2018-09-24T15:53:16.649Z,103153.56
2018-09-24T15:55:52.145Z,103151.28
2018-09-24T15:58:27.252Z,103154.22
2018-09-24T16:01:02.431Z,103155.98
2018-09-24T16:03:39.035Z,103153.13
2018-09-24T16:06:14.105Z,103151.80
2018-09-24T16:08:49.941Z,103159.47
2018-09-24T16:11:25.188Z,103157.86
2018-09-24T16:14:00.028Z,103162.13
2018-09-24T16:16:35.494Z,103173.41
2018-09-24T16:19:10.567Z,103158.82
2018-09-24T16:21:46.022Z,103176.11
2018-09-24T16:24:21.666Z,103168.61
2018-09-24T16:26:56.675Z,103168.74
2018-09-24T16:29:31.900Z,103171.69
2018-09-24T16:32:06.914Z,103172.91
2018-09-24T16:34:42.436Z,103177.95
2018-09-24T16:37:17.859Z,103176.92
2018-09-24T16:39:52.841Z,103182.06
2018-09-24T16:42:28.423Z,103181.45
2018-09-24T16:45:03.982Z,103190.84
2018-09-24T16:47:39.634Z,103190.48
2018-09-24T16:50:15.115Z,103190.39
2018-09-24T16:52:50.422Z,103181.03
2018-09-24T16:55:26.720Z,103194.06
2018-09-24T16:58:02.108Z,103193.83
2018-09-24T17:00:37.551Z,103194.58
2018-09-24T17:03:13.524Z,103196.68
2018-09-24T17:05:49.124Z,103199.84
2018-09-24T17:08:24.384Z,103204.06
2018-09-24T17:11:00.067Z,103203.00
2018-09-24T17:13:35.473Z,103204.51
2018-09-24T17:16:11.082Z,103212.77
2018-09-24T17:18:46.695Z,103215.89
2018-09-24T17:21:22.574Z,103214.59
2018-09-24T17:23:57.746Z,103219.77
2018-09-24T17:26:33.212Z,103227.28
2018-09-24T17:29:08.556Z,103226.87
2018-09-24T17:31:43.675Z,103223.34
2018-09-24T17:34:19.090Z,103228.58
2018-09-24T17:36:55.012Z,103226.94
2018-09-24T17:39:30.921Z,103234.66
2018-09-24T17:42:06.306Z,103236.06
2018-09-24T17:44:41.513Z,103238.56
2018-09-24T17:47:16.695Z,103248.44
2018-09-24T17:49:52.001Z,103249.19
2018-09-24T17:52:27.419Z,103247.09
2018-09-24T17:55:02.701Z,103252.17
2018-09-24T17:57:37.825Z,103253.27
2018-09-24T18:00:12.971Z,103259.58
2018-09-24T18:02:47.992Z,103258.23
2018-09-24T18:05:23.013Z,103267.90
2018-09-24T18:07:58.419Z,103273.48
2018-09-24T18:10:33.766Z,103272.00
2018-09-24T18:13:08.760Z,103286.05
2018-09-24T18:15:43.991Z,103287.34
2018-09-24T18:18:19.295Z,103286.80
2018-09-24T18:20:54.879Z,103283.95
2018-09-24T18:23:30.076Z,103294.17
2018-09-24T18:26:05.675Z,103294.48
2018-09-24T18:28:41.009Z,103295.82
2018-09-24T18:31:16.540Z,103300.98
2018-09-24T18:33:52.097Z,103296.57
2018-09-24T18:36:27.026Z,103302.79
2018-09-24T18:39:02.243Z,103300.23
2018-09-24T18:41:37.367Z,103309.16
2018-09-24T18:44:12.841Z,103319.06
2018-09-24T18:46:47.990Z,103313.60
2018-09-24T18:49:23.327Z,103326.41
2018-09-24T18:51:58.542Z,103327.71
2018-09-24T18:54:33.811Z,103336.78
2018-09-24T18:57:08.624Z,103334.73
2018-09-24T18:59:43.705Z,103339.30
2018-09-24T19:02:19.011Z,103344.25
2018-09-24T19:04:54.066Z,103343.97
2018-09-24T19:07:29.412Z,103341.73
2018-09-24T19:10:05.976Z,103337.89
2018-09-24T19:12:40.819Z,103345.72
2018-09-24T19:15:15.780Z,103346.55
2018-09-24T19:17:51.094Z,103351.89
2018-09-24T19:20:25.964Z,103355.05
2018-09-24T19:23:01.610Z,103354.45
2018-09-24T19:25:36.845Z,103355.07
2018-09-24T19:28:12.042Z,103353.50
2018-09-24T19:30:47.519Z,103355.44
2018-09-24T19:33:22.931Z,103356.59
2018-09-24T19:35:57.978Z,103362.53
2018-09-24T19:38:32.919Z,103366.17
2018-09-24T19:41:08.214Z,103368.75
2018-09-24T19:43:43.600Z,103373.62
2018-09-24T19:46:18.814Z,103374.55
2018-09-24T19:48:54.416Z,103372.16
2018-09-24T19:51:29.903Z,103375.84
2018-09-24T19:54:05.291Z,103377.55
2018-09-24T19:56:40.579Z,103376.67
2018-09-24T19:59:15.977Z,103380.81
2018-09-24T20:01:51.066Z,103393.20
2018-09-24T20:04:26.091Z,103394.75
2018-09-24T20:07:01.839Z,103391.66
2018-09-24T20:09:36.873Z,103395.30
2018-09-24T20:12:12.363Z,103399.50
2018-09-24T20:14:47.785Z,103393.20
2018-09-24T20:17:22.783Z,103393.14
2018-09-24T20:19:57.664Z,103395.07
2018-09-24T20:22:32.752Z,103395.20
2018-09-24T20:25:07.738Z,103395.44
2018-09-24T20:27:42.703Z,103396.45
2018-09-24T20:30:17.724Z,103400.54
2018-09-24T20:32:53.060Z,103405.73
2018-09-24T20:35:28.088Z,103406.48
2018-09-24T20:38:03.088Z,103409.14
2018-09-24T20:40:38.231Z,103413.64
2018-09-24T20:43:13.454Z,103411.99
2018-09-24T20:45:48.662Z,103415.05
2018-09-24T20:48:24.147Z,103420.59
2018-09-24T20:50:59.239Z,103427.63
2018-09-24T20:53:34.657Z,103424.30
2018-09-24T20:56:10.461Z,103424.80
2018-09-24T20:58:45.495Z,103430.59
2018-09-24T21:01:20.711Z,103431.03
2018-09-24T21:03:55.810Z,103424.66
2018-09-24T21:06:30.841Z,103429.99
2018-09-24T21:09:15.165Z,103443.70
2018-09-24T21:11:50.202Z,103443.55
2018-09-24T21:14:25.429Z,103438.86
2018-09-24T21:17:00.431Z,103448.86
2018-09-24T21:19:35.531Z,103450.41
2018-09-24T21:22:10.556Z,103449.08
2018-09-24T21:24:45.555Z,103450.03
2018-09-24T21:27:20.676Z,103455.33
2018-09-24T21:29:55.476Z,103457.68
2018-09-24T21:32:30.735Z,103458.00
2018-09-24T21:35:05.852Z,103461.36
2018-09-24T21:37:41.070Z,103475.01
2018-09-24T21:40:16.492Z,103467.64
2018-09-24T21:42:51.448Z,103474.81
2018-09-24T21:45:26.599Z,103476.48
2018-09-24T21:48:01.815Z,103477.27
2018-09-24T21:50:36.854Z,103477.66
2018-09-24T21:53:12.102Z,103484.75
2018-09-24T21:55:47.369Z,103485.70
2018-09-24T21:58:22.761Z,103483.08
2018-09-24T22:00:57.878Z,103486.75
2018-09-24T22:03:33.162Z,103485.53
2018-09-24T22:06:08.439Z,103480.59
2018-09-24T22:08:43.548Z,103486.09
2018-09-24T22:11:18.903Z,103484.37
2018-09-24T22:13:53.910Z,103491.53
2018-09-24T22:16:28.795Z,103488.09
2018-09-24T22:19:04.112Z,103481.61
2018-09-24T22:21:39.196Z,103493.42
2018-09-24T22:24:14.427Z,103488.80
2018-09-24T22:26:49.268Z,103491.52
2018-09-24T22:29:24.264Z,103497.42
2018-09-24T22:31:59.464Z,103492.75
2018-09-24T22:34:35.576Z,103491.63
2018-09-24T22:37:11.007Z,103492.14
2018-09-24T22:39:46.309Z,103497.08
2018-09-24T22:42:21.507Z,103502.02
2018-09-24T22:44:56.870Z,103501.22
2018-09-24T22:47:31.826Z,103504.11
2018-09-24T22:50:06.834Z,103504.66
2018-09-24T22:52:41.929Z,103502.20
2018-09-24T22:55:16.951Z,103502.10
2018-09-24T22:57:52.067Z,103495.44
2018-09-24T23:00:27.082Z,103503.72
2018-09-24T23:03:01.882Z,103499.54
2018-09-24T23:05:36.887Z,103502.31
2018-09-24T23:08:11.944Z,103505.80
2018-09-24T23:10:47.265Z,103505.70
2018-09-24T23:13:22.803Z,103510.34
2018-09-24T23:15:58.032Z,103510.78
2018-09-24T23:18:33.221Z,103515.92
2018-09-24T23:21:08.071Z,103507.61
2018-09-24T23:23:43.015Z,103509.77
2018-09-24T23:26:18.249Z,103515.70
2018-09-24T23:28:53.404Z,103517.36
2018-09-24T23:31:28.443Z,103517.97
2018-09-24T23:34:03.433Z,103507.72
2018-09-24T23:36:38.517Z,103511.13
2018-09-24T23:39:15.053Z,103510.20
2018-09-24T23:41:50.131Z,103506.34
2018-09-24T23:44:25.055Z,103507.50
2018-09-24T23:47:00.090Z,103506.95
2018-09-24T23:49:35.176Z,103503.18
2018-09-24T23:52:09.979Z,103504.65
2018-09-24T23:54:44.886Z,103495.73
2018-09-24T23:57:19.901Z,103512.04
2018-09-24T23:59:54.915Z,103519.83
